sensor_id;sensor_type;location;lat;lon;timestamp;pressure;altitude;pressure_sealevel;temperature;humidity
82290;BME280;71891;21.336;-157.724;2023-07-30T02:20:43;101344.93;;;32.82;30.44
82290;BME280;71891;21.336;-157.724;2023-07-30T02:23:09;101339.43;;;32.95;30.52
82290;BME280;71891;21.336;-157.724;2023-07-30T02:25:34;101333.60;;;30.73;32.42
82290;BME280;71891;21.336;-157.724;2023-07-30T02:28:00;101334.16;;;31.08;32.54
82290;BME280;71891;21.336;-157.724;2023-07-30T02:30:25;101330.64;;;31.80;30.89
82290;BME280;71891;21.336;-157.724;2023-07-30T02:32:50;101329.87;;;32.39;30.96
82290;BME280;71891;21.336;-157.724;2023-07-30T02:35:16;101331.52;;;32.15;31.45
82290;BME280;71891;21.336;-157.724;2023-07-30T02:37:42;101332.68;;;32.74;30.88
82290;BME280;71891;21.336;-157.724;2023-07-30T02:40:08;101329.38;;;32.81;30.72
82290;BME280;71891;21.336;-157.724;2023-07-30T02:42:33;101326.95;;;32.92;30.37
82290;BME280;71891;21.336;-157.724;2023-07-30T02:44:58;101323.60;;;32.99;30.38
82290;BME280;71891;21.336;-157.724;2023-07-30T02:47:24;101323.02;;;32.66;30.62
82290;BME280;71891;21.336;-157.724;2023-07-30T02:49:49;101324.85;;;31.04;32.76
82290;BME280;71891;21.336;-157.724;2023-07-30T02:52:14;101325.25;;;33.52;30.13
82290;BME280;71891;21.336;-157.724;2023-07-30T02:54:40;101332.06;;;33.18;30.30
82290;BME280;71891;21.336;-157.724;2023-07-30T02:57:07;101329.08;;;33.79;30.22
82290;BME280;71891;21.336;-157.724;2023-07-30T02:59:31;101334.32;;;32.65;31.62
82290;BME280;71891;21.336;-157.724;2023-07-30T03:01:57;101332.18;;;33.16;31.19
82290;BME280;71891;21.336;-157.724;2023-07-30T03:04:22;101333.55;;;32.17;31.76
82290;BME280;71891;21.336;-157.724;2023-07-30T03:06:48;101338.11;;;32.70;31.35
82290;BME280;71891;21.336;-157.724;2023-07-30T03:09:13;101339.50;;;31.77;32.66
82290;BME280;71891;21.336;-157.724;2023-07-30T03:11:39;101333.47;;;32.10;33.12
82290;BME280;71891;21.336;-157.724;2023-07-30T03:14:04;101339.21;;;30.32;34.84
82290;BME280;71891;21.336;-157.724;2023-07-30T03:16:30;101337.21;;;31.74;33.57
82290;BME280;71891;21.336;-157.724;2023-07-30T03:18:55;101339.68;;;31.27;34.02
82290;BME280;71891;21.336;-157.724;2023-07-30T03:21:21;101342.38;;;30.48;35.13
82290;BME280;71891;21.336;-157.724;2023-07-30T03:23:46;101344.65;;;31.12;34.64
82290;BME280;71891;21.336;-157.724;2023-07-30T03:26:12;101343.55;;;30.04;35.23
82290;BME280;71891;21.336;-157.724;2023-07-30T03:28:38;101344.78;;;31.03;34.51
82290;BME280;71891;21.336;-157.724;2023-07-30T03:31:03;101346.86;;;30.88;33.73
82290;BME280;71891;21.336;-157.724;2023-07-30T03:33:30;101345.43;;;30.34;34.48
82290;BME280;71891;21.336;-157.724;2023-07-30T03:35:54;101350.02;;;30.77;34.27
82290;BME280;71891;21.336;-157.724;2023-07-30T03:38:20;101349.60;;;30.80;33.92
82290;BME280;71891;21.336;-157.724;2023-07-30T03:40:46;101351.29;;;30.32;34.50
82290;BME280;71891;21.336;-157.724;2023-07-30T03:43:11;101355.22;;;31.19;34.12
82290;BME280;71891;21.336;-157.724;2023-07-30T03:45:36;101355.83;;;30.07;34.83
82290;BME280;71891;21.336;-157.724;2023-07-30T03:48:02;101363.45;;;30.41;34.41
82290;BME280;71891;21.336;-157.724;2023-07-30T03:50:28;101363.38;;;30.14;34.58
82290;BME280;71891;21.336;-157.724;2023-07-30T03:52:53;101359.26;;;30.05;35.26
82290;BME280;71891;21.336;-157.724;2023-07-30T03:55:19;101364.06;;;31.14;33.54
82290;BME280;71891;21.336;-157.724;2023-07-30T03:57:45;101364.18;;;29.99;34.75
82290;BME280;71891;21.336;-157.724;2023-07-30T04:00:10;101365.68;;;29.45;34.67
82290;BME280;71891;21.336;-157.724;2023-07-30T04:02:35;101366.30;;;30.90;33.17
82290;BME280;71891;21.336;-157.724;2023-07-30T04:05:01;101367.63;;;30.21;33.74
82290;BME280;71891;21.336;-157.724;2023-07-30T04:07:27;101368.67;;;30.62;33.98
82290;BME280;71891;21.336;-157.724;2023-07-30T04:09:52;101375.11;;;31.05;33.99
82290;BME280;71891;21.336;-157.724;2023-07-30T04:12:18;101376.43;;;30.49;33.91
82290;BME280;71891;21.336;-157.724;2023-07-30T04:14:44;101372.19;;;29.61;34.79
82290;BME280;71891;21.336;-157.724;2023-07-30T04:17:09;101378.27;;;30.12;34.65
82290;BME280;71891;21.336;-157.724;2023-07-30T04:19:34;101379.57;;;30.28;34.13
82290;BME280;71891;21.336;-157.724;2023-07-30T04:22:00;101380.63;;;30.00;34.21
82290;BME280;71891;21.336;-157.724;2023-07-30T04:24:26;101382.95;;;29.06;34.94
82290;BME280;71891;21.336;-157.724;2023-07-30T04:26:51;101382.15;;;29.71;34.00
82290;BME280;71891;21.336;-157.724;2023-07-30T04:29:21;101384.32;;;30.85;33.21
82290;BME280;71891;21.336;-157.724;2023-07-30T04:31:43;101383.50;;;30.76;33.62
82290;BME280;71891;21.336;-157.724;2023-07-30T04:34:08;101386.67;;;29.96;33.79
82290;BME280;71891;21.336;-157.724;2023-07-30T04:36:33;101389.92;;;30.61;33.63
82290;BME280;71891;21.336;-157.724;2023-07-30T04:38:59;101395.42;;;30.60;33.59
82290;BME280;71891;21.336;-157.724;2023-07-30T04:41:25;101400.35;;;29.73;34.31
82290;BME280;71891;21.336;-157.724;2023-07-30T04:43:50;101401.63;;;29.73;34.56
82290;BME280;71891;21.336;-157.724;2023-07-30T04:46:16;101405.76;;;29.68;34.88
82290;BME280;71891;21.336;-157.724;2023-07-30T04:48:42;101409.41;;;30.60;34.09
82290;BME280;71891;21.336;-157.724;2023-07-30T04:51:07;101417.95;;;30.66;33.52
82290;BME280;71891;21.336;-157.724;2023-07-30T04:53:32;101415.62;;;29.86;34.15
82290;BME280;71891;21.336;-157.724;2023-07-30T04:55:59;101417.73;;;29.43;34.81
82290;BME280;71891;21.336;-157.724;2023-07-30T04:58:24;101423.58;;;30.03;34.59
82290;BME280;71891;21.336;-157.724;2023-07-30T05:00:50;101418.83;;;30.26;34.32
82290;BME280;71891;21.336;-157.724;2023-07-30T05:03:15;101418.48;;;29.94;34.08
82290;BME280;71891;21.336;-157.724;2023-07-30T05:05:41;101421.33;;;30.70;33.61
82290;BME280;71891;21.336;-157.724;2023-07-30T05:08:06;101421.60;;;30.32;33.89
82290;BME280;71891;21.336;-157.724;2023-07-30T05:10:32;101424.51;;;31.00;33.47
82290;BME280;71891;21.336;-157.724;2023-07-30T05:12:57;101427.76;;;29.80;34.60
82290;BME280;71891;21.336;-157.724;2023-07-30T05:15:23;101430.18;;;29.58;34.64
82290;BME280;71891;21.336;-157.724;2023-07-30T05:17:48;101430.90;;;29.02;34.96
82290;BME280;71891;21.336;-157.724;2023-07-30T05:20:14;101436.05;;;29.06;35.20
82290;BME280;71891;21.336;-157.724;2023-07-30T05:22:39;101437.07;;;29.00;35.64
82290;BME280;71891;21.336;-157.724;2023-07-30T05:25:06;101441.76;;;29.18;35.81
82290;BME280;71891;21.336;-157.724;2023-07-30T05:27:31;101446.53;;;29.19;35.65
82290;BME280;71891;21.336;-157.724;2023-07-30T05:29:56;101447.00;;;29.41;35.95
82290;BME280;71891;21.336;-157.724;2023-07-30T05:32:22;101449.49;;;29.30;36.07
82290;BME280;71891;21.336;-157.724;2023-07-30T05:34:47;101452.26;;;29.80;34.83
82290;BME280;71891;21.336;-157.724;2023-07-30T05:37:13;101449.59;;;28.73;36.44
82290;BME280;71891;21.336;-157.724;2023-07-30T05:39:40;101453.95;;;28.74;36.55
82290;BME280;71891;21.336;-157.724;2023-07-30T05:42:04;101457.77;;;27.94;35.27
82290;BME280;71891;21.336;-157.724;2023-07-30T05:44:30;101461.18;;;27.80;31.65
82290;BME280;71891;21.336;-157.724;2023-07-30T05:46:57;101460.67;;;31.38;30.91
82290;BME280;71891;21.336;-157.724;2023-07-30T05:49:21;101465.39;;;31.01;32.02
82290;BME280;71891;21.336;-157.724;2023-07-30T05:51:47;101465.89;;;30.20;32.52
82290;BME280;71891;21.336;-157.724;2023-07-30T05:54:13;101461.73;;;30.16;33.11
82290;BME280;71891;21.336;-157.724;2023-07-30T05:56:38;101465.00;;;29.91;33.42
82290;BME280;71891;21.336;-157.724;2023-07-30T05:59:03;101468.25;;;31.02;32.32
82290;BME280;71891;21.336;-157.724;2023-07-30T06:01:29;101471.23;;;30.71;32.63
82290;BME280;71891;21.336;-157.724;2023-07-30T06:03:55;101468.91;;;30.36;33.02
82290;BME280;71891;21.336;-157.724;2023-07-30T06:06:20;101473.54;;;30.37;32.62
82290;BME280;71891;21.336;-157.724;2023-07-30T06:08:46;101477.26;;;30.74;32.15
82290;BME280;71891;21.336;-157.724;2023-07-30T06:11:12;101477.49;;;30.25;32.91
82290;BME280;71891;21.336;-157.724;2023-07-30T06:13:37;101481.54;;;29.58;33.24
82290;BME280;71891;21.336;-157.724;2023-07-30T06:16:03;101485.11;;;29.48;33.45
82290;BME280;71891;21.336;-157.724;2023-07-30T06:18:28;101487.02;;;31.56;30.19
82290;BME280;71891;21.336;-157.724;2023-07-30T06:20:54;101484.34;;;29.88;31.82
82290;BME280;71891;21.336;-157.724;2023-07-30T06:23:20;101486.19;;;30.30;32.32
82290;BME280;71891;21.336;-157.724;2023-07-30T06:25:46;101487.27;;;30.65;32.38
82290;BME280;71891;21.336;-157.724;2023-07-30T06:28:11;101489.78;;;29.18;34.06
82290;BME280;71891;21.336;-157.724;2023-07-30T06:30:36;101488.46;;;29.94;33.50
82290;BME280;71891;21.336;-157.724;2023-07-30T06:33:02;101487.85;;;29.57;34.09
82290;BME280;71891;21.336;-157.724;2023-07-30T06:35:28;101484.77;;;29.52;33.58
82290;BME280;71891;21.336;-157.724;2023-07-30T06:37:53;101486.26;;;29.97;33.27
82290;BME280;71891;21.336;-157.724;2023-07-30T06:40:19;101488.25;;;30.06;33.82
82290;BME280;71891;21.336;-157.724;2023-07-30T06:42:45;101492.49;;;29.70;34.25
82290;BME280;71891;21.336;-157.724;2023-07-30T06:45:11;101491.52;;;29.69;33.37
82290;BME280;71891;21.336;-157.724;2023-07-30T06:47:36;101497.70;;;29.16;34.21
82290;BME280;71891;21.336;-157.724;2023-07-30T06:50:01;101495.78;;;30.15;33.23
82290;BME280;71891;21.336;-157.724;2023-07-30T06:52:27;101498.93;;;29.25;33.57
82290;BME280;71891;21.336;-157.724;2023-07-30T06:54:53;101500.58;;;29.49;33.73
82290;BME280;71891;21.336;-157.724;2023-07-30T06:57:18;101505.57;;;29.26;33.73
82290;BME280;71891;21.336;-157.724;2023-07-30T06:59:45;101503.59;;;29.15;33.86
82290;BME280;71891;21.336;-157.724;2023-07-30T07:02:10;101501.14;;;29.05;34.36
82290;BME280;71891;21.336;-157.724;2023-07-30T07:04:35;101501.54;;;29.07;34.31
82290;BME280;71891;21.336;-157.724;2023-07-30T07:07:01;101498.00;;;29.89;33.21
82290;BME280;71891;21.336;-157.724;2023-07-30T07:09:26;101501.92;;;29.77;32.91
82290;BME280;71891;21.336;-157.724;2023-07-30T07:11:52;101503.37;;;29.55;33.39
82290;BME280;71891;21.336;-157.724;2023-07-30T07:14:18;101503.43;;;30.07;33.28
82290;BME280;71891;21.336;-157.724;2023-07-30T07:16:44;101506.82;;;29.12;33.94
82290;BME280;71891;21.336;-157.724;2023-07-30T07:19:09;101509.01;;;29.62;33.55
82290;BME280;71891;21.336;-157.724;2023-07-30T07:21:35;101507.75;;;29.44;33.56
82290;BME280;71891;21.336;-157.724;2023-07-30T07:24:00;101511.42;;;28.94;34.14
82290;BME280;71891;21.336;-157.724;2023-07-30T07:26:26;101513.72;;;28.26;34.45
82290;BME280;71891;21.336;-157.724;2023-07-30T07:28:52;101517.50;;;29.00;34.11
82290;BME280;71891;21.336;-157.724;2023-07-30T07:31:17;101516.65;;;29.43;34.11
82290;BME280;71891;21.336;-157.724;2023-07-30T07:33:45;101514.84;;;29.24;34.31
82290;BME280;71891;21.336;-157.724;2023-07-30T07:36:08;101515.09;;;29.74;33.81
82290;BME280;71891;21.336;-157.724;2023-07-30T07:38:34;101519.14;;;29.54;33.48
82290;BME280;71891;21.336;-157.724;2023-07-30T07:41:00;101522.47;;;30.22;33.71
82290;BME280;71891;21.336;-157.724;2023-07-30T07:43:25;101520.83;;;29.20;34.43
82290;BME280;71891;21.336;-157.724;2023-07-30T07:45:50;101519.64;;;28.82;34.58
82290;BME280;71891;21.336;-157.724;2023-07-30T07:48:16;101524.73;;;29.68;33.79
82290;BME280;71891;21.336;-157.724;2023-07-30T07:50:43;101525.92;;;29.63;34.01
82290;BME280;71891;21.336;-157.724;2023-07-30T07:53:07;101530.26;;;28.97;34.55
82290;BME280;71891;21.336;-157.724;2023-07-30T07:55:33;101531.43;;;29.36;33.75
82290;BME280;71891;21.336;-157.724;2023-07-30T07:57:59;101535.50;;;29.23;34.07
82290;BME280;71891;21.336;-157.724;2023-07-30T08:00:24;101534.36;;;28.96;34.40
82290;BME280;71891;21.336;-157.724;2023-07-30T08:02:50;101536.69;;;29.33;33.98
82290;BME280;71891;21.336;-157.724;2023-07-30T08:05:16;101536.30;;;28.90;34.70
82290;BME280;71891;21.336;-157.724;2023-07-30T08:07:41;101537.78;;;28.94;34.63
82290;BME280;71891;21.336;-157.724;2023-07-30T08:10:07;101540.99;;;29.60;33.77
82290;BME280;71891;21.336;-157.724;2023-07-30T08:12:33;101541.99;;;29.41;32.65
82290;BME280;71891;21.336;-157.724;2023-07-30T08:14:58;101541.06;;;29.07;34.16
82290;BME280;71891;21.336;-157.724;2023-07-30T08:17:23;101537.44;;;28.82;34.16
82290;BME280;71891;21.336;-157.724;2023-07-30T08:19:49;101535.22;;;28.73;34.25
82290;BME280;71891;21.336;-157.724;2023-07-30T08:22:14;101532.57;;;27.79;35.16
82290;BME280;71891;21.336;-157.724;2023-07-30T08:24:40;101537.99;;;28.60;34.40
82290;BME280;71891;21.336;-157.724;2023-07-30T08:27:06;101536.01;;;29.42;33.92
82290;BME280;71891;21.336;-157.724;2023-07-30T08:29:31;101534.43;;;28.56;35.32
82290;BME280;71891;21.336;-157.724;2023-07-30T08:31:58;101538.96;;;29.97;33.28
82290;BME280;71891;21.336;-157.724;2023-07-30T08:34:24;101539.68;;;28.92;33.30
82290;BME280;71891;21.336;-157.724;2023-07-30T08:36:48;101541.06;;;29.22;33.86
82290;BME280;71891;21.336;-157.724;2023-07-30T08:39:14;101539.68;;;28.39;34.80
82290;BME280;71891;21.336;-157.724;2023-07-30T08:41:40;101540.73;;;29.15;34.40
82290;BME280;71891;21.336;-157.724;2023-07-30T08:44:05;101533.17;;;28.48;35.17
82290;BME280;71891;21.336;-157.724;2023-07-30T08:46:31;101532.84;;;28.54;35.15
82290;BME280;71891;21.336;-157.724;2023-07-30T08:48:56;101533.35;;;28.73;34.60
82290;BME280;71891;21.336;-157.724;2023-07-30T08:51:23;101533.17;;;29.02;34.38
82290;BME280;71891;21.336;-157.724;2023-07-30T08:53:48;101532.52;;;28.72;34.69
82290;BME280;71891;21.336;-157.724;2023-07-30T08:56:14;101531.58;;;28.30;35.18
82290;BME280;71891;21.336;-157.724;2023-07-30T08:58:39;101523.99;;;28.67;34.10
82290;BME280;71891;21.336;-157.724;2023-07-30T09:01:09;101525.92;;;28.08;35.04
82290;BME280;71891;21.336;-157.724;2023-07-30T09:03:31;101525.63;;;27.46;35.59
82290;BME280;71891;21.336;-157.724;2023-07-30T09:05:56;101520.71;;;28.47;34.82
82290;BME280;71891;21.336;-157.724;2023-07-30T09:08:22;101522.78;;;27.99;35.15
82290;BME280;71891;21.336;-157.724;2023-07-30T09:10:47;101518.33;;;29.25;34.05
82290;BME280;71891;21.336;-157.724;2023-07-30T09:13:21;101516.27;;;28.48;35.06
82290;BME280;71891;21.336;-157.724;2023-07-30T09:15:39;101515.31;;;29.22;34.63
82290;BME280;71891;21.336;-157.724;2023-07-30T09:18:05;101516.65;;;28.06;35.02
82290;BME280;71891;21.336;-157.724;2023-07-30T09:20:37;101513.80;;;28.01;35.90
82290;BME280;71891;21.336;-157.724;2023-07-30T09:22:57;101512.21;;;28.49;34.75
82290;BME280;71891;21.336;-157.724;2023-07-30T09:25:21;101508.54;;;28.77;34.90
82290;BME280;71891;21.336;-157.724;2023-07-30T09:27:49;101509.99;;;28.89;34.48
82290;BME280;71891;21.336;-157.724;2023-07-30T09:30:13;101510.04;;;28.21;35.05
82290;BME280;71891;21.336;-157.724;2023-07-30T09:32:38;101513.43;;;28.56;35.00
82290;BME280;71891;21.336;-157.724;2023-07-30T09:35:06;101510.91;;;29.84;33.70
82290;BME280;71891;21.336;-157.724;2023-07-30T09:37:30;101504.54;;;28.54;35.36
82290;BME280;71891;21.336;-157.724;2023-07-30T09:39:58;101500.28;;;29.77;33.71
82290;BME280;71891;21.336;-157.724;2023-07-30T09:42:22;101501.57;;;29.44;33.32
82290;BME280;71891;21.336;-157.724;2023-07-30T09:44:48;101502.84;;;30.30;33.02
82290;BME280;71891;21.336;-157.724;2023-07-30T09:47:12;101503.08;;;29.50;32.66
82290;BME280;71891;21.336;-157.724;2023-07-30T09:49:38;101501.65;;;31.13;31.97
82290;BME280;71891;21.336;-157.724;2023-07-30T09:52:04;101503.59;;;30.02;32.87
82290;BME280;71891;21.336;-157.724;2023-07-30T09:54:30;101502.55;;;30.70;32.88
82290;BME280;71891;21.336;-157.724;2023-07-30T09:56:55;101501.70;;;29.23;33.44
82290;BME280;71891;21.336;-157.724;2023-07-30T09:59:20;101495.51;;;30.59;32.56
82290;BME280;71891;21.336;-157.724;2023-07-30T10:01:48;101495.00;;;30.53;33.57
82290;BME280;71891;21.336;-157.724;2023-07-30T10:04:12;101493.43;;;30.75;33.12
82290;BME280;71891;21.336;-157.724;2023-07-30T10:06:41;101488.04;;;30.26;33.89
82290;BME280;71891;21.336;-157.724;2023-07-30T10:09:03;101486.62;;;30.52;33.08
82290;BME280;71891;21.336;-157.724;2023-07-30T10:11:29;101481.52;;;29.87;33.55
82290;BME280;71891;21.336;-157.724;2023-07-30T10:13:55;101483.67;;;29.67;34.29
82290;BME280;71891;21.336;-157.724;2023-07-30T10:16:26;101487.05;;;31.04;33.17
82290;BME280;71891;21.336;-157.724;2023-07-30T10:18:46;101483.90;;;30.49;33.85
82290;BME280;71891;21.336;-157.724;2023-07-30T10:23:46;101482.31;;;30.83;33.15
82290;BME280;71891;21.336;-157.724;2023-07-30T10:26:09;101480.11;;;30.84;33.69
82290;BME280;71891;21.336;-157.724;2023-07-30T10:28:32;101475.03;;;31.59;32.18
82290;BME280;71891;21.336;-157.724;2023-07-30T10:30:57;101474.28;;;30.00;33.88
82290;BME280;71891;21.336;-157.724;2023-07-30T10:33:19;101473.05;;;30.30;34.42
82290;BME280;71891;21.336;-157.724;2023-07-30T10:35:46;101471.62;;;30.05;33.88
82290;BME280;71891;21.336;-157.724;2023-07-30T10:38:15;101468.98;;;30.66;33.71
82290;BME280;71891;21.336;-157.724;2023-07-30T10:40:40;101470.96;;;30.60;33.38
82290;BME280;71891;21.336;-157.724;2023-07-30T10:43:02;101468.28;;;29.78;33.90
82290;BME280;71891;21.336;-157.724;2023-07-30T10:45:28;101467.31;;;30.47;33.80
82290;BME280;71891;21.336;-157.724;2023-07-30T10:47:53;101462.48;;;29.47;35.29
82290;BME280;71891;21.336;-157.724;2023-07-30T10:50:23;101465.63;;;29.49;35.04
82290;BME280;71891;21.336;-157.724;2023-07-30T10:52:45;101462.13;;;30.39;34.16
82290;BME280;71891;21.336;-157.724;2023-07-30T10:55:10;101459.81;;;30.61;33.79
82290;BME280;71891;21.336;-157.724;2023-07-30T10:57:36;101457.68;;;30.11;33.95
82290;BME280;71891;21.336;-157.724;2023-07-30T11:00:02;101455.84;;;30.47;34.46
82290;BME280;71891;21.336;-157.724;2023-07-30T11:02:29;101454.59;;;30.10;35.12
82290;BME280;71891;21.336;-157.724;2023-07-30T11:04:53;101451.68;;;31.09;33.55
82290;BME280;71891;21.336;-157.724;2023-07-30T11:07:19;101444.17;;;29.78;34.01
82290;BME280;71891;21.336;-157.724;2023-07-30T11:09:44;101438.93;;;29.66;35.07
82290;BME280;71891;21.336;-157.724;2023-07-30T11:12:10;101437.94;;;30.00;34.41
82290;BME280;71891;21.336;-157.724;2023-07-30T11:14:35;101434.13;;;29.68;34.78
82290;BME280;71891;21.336;-157.724;2023-07-30T11:17:01;101430.30;;;29.05;35.53
82290;BME280;71891;21.336;-157.724;2023-07-30T11:19:27;101431.72;;;30.37;34.09
82290;BME280;71891;21.336;-157.724;2023-07-30T11:21:54;101425.51;;;30.98;33.59
82290;BME280;71891;21.336;-157.724;2023-07-30T11:24:18;101428.80;;;30.56;33.95
82290;BME280;71891;21.336;-157.724;2023-07-30T11:26:44;101429.60;;;30.85;34.02
82290;BME280;71891;21.336;-157.724;2023-07-30T11:29:16;101427.08;;;28.96;36.10
82290;BME280;71891;21.336;-157.724;2023-07-30T11:31:35;101429.69;;;29.70;35.50
82290;BME280;71891;21.336;-157.724;2023-07-30T11:34:01;101430.48;;;30.30;34.58
82290;BME280;71891;21.336;-157.724;2023-07-30T11:36:26;101432.04;;;29.14;35.92
82290;BME280;71891;21.336;-157.724;2023-07-30T11:38:52;101427.48;;;30.37;34.82
82290;BME280;71891;21.336;-157.724;2023-07-30T11:41:18;101426.42;;;29.88;34.85
82290;BME280;71891;21.336;-157.724;2023-07-30T11:43:44;101424.49;;;31.34;33.69
82290;BME280;71891;21.336;-157.724;2023-07-30T11:46:12;101420.37;;;30.03;34.63
82290;BME280;71891;21.336;-157.724;2023-07-30T11:48:35;101416.31;;;30.19;34.60
82290;BME280;71891;21.336;-157.724;2023-07-30T11:51:01;101413.39;;;30.25;34.18
82290;BME280;71891;21.336;-157.724;2023-07-30T11:55:52;101411.72;;;30.00;34.45
82290;BME280;71891;21.336;-157.724;2023-07-30T11:58:17;101408.96;;;31.17;33.55
82290;BME280;71891;21.336;-157.724;2023-07-30T12:00:44;101402.40;;;29.77;34.46
82290;BME280;71891;21.336;-157.724;2023-07-30T12:03:11;101404.71;;;30.30;34.24
82290;BME280;71891;21.336;-157.724;2023-07-30T12:05:36;101404.23;;;30.08;34.63
82290;BME280;71891;21.336;-157.724;2023-07-30T12:08:01;101399.99;;;29.92;34.35
82290;BME280;71891;21.336;-157.724;2023-07-30T12:10:26;101404.44;;;30.14;34.61
82290;BME280;71891;21.336;-157.724;2023-07-30T12:12:52;101401.57;;;29.34;35.82
82290;BME280;71891;21.336;-157.724;2023-07-30T12:15:17;101396.91;;;30.16;34.36
82290;BME280;71891;21.336;-157.724;2023-07-30T12:17:43;101391.68;;;29.72;34.58
82290;BME280;71891;21.336;-157.724;2023-07-30T12:20:10;101388.24;;;29.48;35.21
82290;BME280;71891;21.336;-157.724;2023-07-30T12:22:34;101385.44;;;29.25;34.75
82290;BME280;71891;21.336;-157.724;2023-07-30T12:25:00;101392.04;;;29.71;34.34
82290;BME280;71891;21.336;-157.724;2023-07-30T12:27:25;101390.51;;;29.46;34.07
82290;BME280;71891;21.336;-157.724;2023-07-30T12:29:51;101390.65;;;30.05;33.88
82290;BME280;71891;21.336;-157.724;2023-07-30T12:32:17;101391.11;;;29.27;34.87
82290;BME280;71891;21.336;-157.724;2023-07-30T12:34:43;101389.50;;;30.07;34.32
82290;BME280;71891;21.336;-157.724;2023-07-30T12:37:08;101389.10;;;29.20;34.63
82290;BME280;71891;21.336;-157.724;2023-07-30T12:39:34;101385.36;;;28.84;35.59
82290;BME280;71891;21.336;-157.724;2023-07-30T12:41:59;101392.39;;;28.79;34.91
82290;BME280;71891;21.336;-157.724;2023-07-30T12:44:25;101391.62;;;30.05;33.32
82290;BME280;71891;21.336;-157.724;2023-07-30T12:46:50;101388.37;;;29.45;34.42
82290;BME280;71891;21.336;-157.724;2023-07-30T12:49:16;101384.03;;;29.44;34.41
82290;BME280;71891;21.336;-157.724;2023-07-30T12:51:42;101376.67;;;28.89;34.80
82290;BME280;71891;21.336;-157.724;2023-07-30T12:54:07;101378.78;;;29.78;34.51
82290;BME280;71891;21.336;-157.724;2023-07-30T12:56:33;101380.51;;;29.51;34.31
82290;BME280;71891;21.336;-157.724;2023-07-30T12:58:59;101377.60;;;29.79;34.53
82290;BME280;71891;21.336;-157.724;2023-07-30T13:01:25;101377.26;;;29.24;33.95
82290;BME280;71891;21.336;-157.724;2023-07-30T13:03:50;101378.24;;;29.68;34.70
82290;BME280;71891;21.336;-157.724;2023-07-30T13:06:16;101374.70;;;29.54;34.36
82290;BME280;71891;21.336;-157.724;2023-07-30T13:08:42;101375.56;;;29.69;34.37
82290;BME280;71891;21.336;-157.724;2023-07-30T13:11:07;101374.64;;;29.54;34.59
82290;BME280;71891;21.336;-157.724;2023-07-30T13:13:33;101377.42;;;29.72;33.76
82290;BME280;71891;21.336;-157.724;2023-07-30T13:15:59;101373.16;;;30.06;33.42
82290;BME280;71891;21.336;-157.724;2023-07-30T13:18:25;101377.50;;;29.20;34.01
82290;BME280;71891;21.336;-157.724;2023-07-30T13:20:50;101376.80;;;29.26;34.62
82290;BME280;71891;21.336;-157.724;2023-07-30T13:23:16;101375.16;;;29.15;34.17
82290;BME280;71891;21.336;-157.724;2023-07-30T13:25:41;101372.68;;;29.63;33.85
82290;BME280;71891;21.336;-157.724;2023-07-30T13:28:07;101371.64;;;30.55;33.00
82290;BME280;71891;21.336;-157.724;2023-07-30T13:30:33;101369.78;;;29.85;34.01
82290;BME280;71891;21.336;-157.724;2023-07-30T13:32:58;101367.66;;;29.21;34.16
82290;BME280;71891;21.336;-157.724;2023-07-30T13:35:24;101367.60;;;29.58;33.43
82290;BME280;71891;21.336;-157.724;2023-07-30T13:37:50;101363.72;;;29.83;32.57
82290;BME280;71891;21.336;-157.724;2023-07-30T13:40:16;101362.23;;;29.13;33.34
82290;BME280;71891;21.336;-157.724;2023-07-30T13:42:41;101367.72;;;29.16;33.57
82290;BME280;71891;21.336;-157.724;2023-07-30T13:45:07;101370.21;;;30.36;32.39
82290;BME280;71891;21.336;-157.724;2023-07-30T13:47:33;101367.63;;;29.67;32.84
82290;BME280;71891;21.336;-157.724;2023-07-30T13:49:58;101367.36;;;30.26;32.42
82290;BME280;71891;21.336;-157.724;2023-07-30T13:52:24;101369.51;;;30.33;32.79
82290;BME280;71891;21.336;-157.724;2023-07-30T13:54:50;101369.37;;;30.18;32.73
82290;BME280;71891;21.336;-157.724;2023-07-30T13:57:21;101371.86;;;29.32;32.96
82290;BME280;71891;21.336;-157.724;2023-07-30T13:59:41;101371.91;;;29.95;33.54
82290;BME280;71891;21.336;-157.724;2023-07-30T14:02:07;101370.66;;;28.84;34.38
82290;BME280;71891;21.336;-157.724;2023-07-30T14:04:32;101371.57;;;29.26;33.72
82290;BME280;71891;21.336;-157.724;2023-07-30T14:06:58;101371.67;;;30.32;32.07
82290;BME280;71891;21.336;-157.724;2023-07-30T14:09:24;101370.33;;;29.94;32.19
82290;BME280;71891;21.336;-157.724;2023-07-30T14:11:49;101371.17;;;29.67;32.67
82290;BME280;71891;21.336;-157.724;2023-07-30T14:14:15;101366.40;;;29.52;33.53
82290;BME280;71891;21.336;-157.724;2023-07-30T14:16:41;101368.24;;;30.12;33.38
82290;BME280;71891;21.336;-157.724;2023-07-30T14:19:06;101369.16;;;30.02;32.69
82290;BME280;71891;21.336;-157.724;2023-07-30T14:21:32;101361.76;;;28.78;34.43
82290;BME280;71891;21.336;-157.724;2023-07-30T14:26:23;101362.43;;;30.17;33.25
82290;BME280;71891;21.336;-157.724;2023-07-30T14:28:49;101364.89;;;28.94;33.25
82290;BME280;71891;21.336;-157.724;2023-07-30T14:31:15;101365.97;;;29.20;32.27
82290;BME280;71891;21.336;-157.724;2023-07-30T14:33:41;101368.51;;;29.56;32.29
82290;BME280;71891;21.336;-157.724;2023-07-30T14:36:06;101365.14;;;29.24;32.71
82290;BME280;71891;21.336;-157.724;2023-07-30T14:38:32;101363.40;;;30.03;31.80